Time;durP1;ratioP1;P1;durP2;ratioP2;P2;SDS_P1;SDS_P2;PMS_P1;PMS_P2;Temp;Humidity;BMP_temperature;BMP_pressure;BME280_temperature;BME280_humidity;BME280_pressure;Samples;Min_cycle;Max_cycle;Signal;HPM_P1;HPM_P2
2023/10/12 00:01:26;;;;;;;0.98;0.73;;;16.90;1.00;;;;;;5029697;28;20513;-79
2023/10/12 00:03:58;;;;;;;4.07;1.08;;;16.90;1.00;;;;;;5029654;28;20041;-78
2023/10/12 00:06:30;;;;;;;0.45;0.32;;;16.90;1.00;;;;;;5028310;28;20034;-78
2023/10/12 00:08:57;;;;;;;2.53;1.23;;;16.90;1.00;;;;;;5026232;28;20036;-78
2023/10/12 00:11:36;;;;;;;0.75;0.75;;;16.90;1.00;;;;;;5030551;28;20052;-77
2023/10/12 00:14:03;;;;;;;2.63;1.55;;;16.80;1.00;;;;;;5028614;28;20033;-78
2023/10/12 00:16:29;;;;;;;2.53;1.45;;;16.80;1.00;;;;;;5028182;28;20052;-78
2023/10/12 00:18:55;;;;;;;0.30;0.30;;;16.80;1.00;;;;;;5029222;28;20390;-79
2023/10/12 00:21:25;;;;;;;1.45;0.52;;;16.70;1.00;;;;;;5030363;28;20044;-77
2023/10/12 00:23:52;;;;;;;2.45;0.47;;;16.70;1.00;;;;;;5044477;28;20378;-79
2023/10/12 00:26:19;;;;;;;0.50;0.43;;;16.70;1.00;;;;;;5028479;28;20036;-77
2023/10/12 00:28:50;;;;;;;1.03;0.93;;;16.60;1.00;;;;;;5032290;28;20406;-78
2023/10/12 00:31:19;;;;;;;8.68;0.75;;;16.70;1.00;;;;;;5027615;28;20299;-78
2023/10/12 00:33:49;;;;;;;0.32;0.20;;;16.70;1.00;;;;;;5030082;28;20048;-78
2023/10/12 00:36:21;;;;;;;1.10;0.65;;;16.70;1.00;;;;;;5029237;28;20052;-77
2023/10/12 00:38:49;;;;;;;2.05;0.40;;;16.70;1.00;;;;;;5028998;28;20125;-77
2023/10/12 00:41:17;;;;;;;0.43;0.40;;;16.70;1.00;;;;;;5028021;28;20481;-77
2023/10/12 00:44:10;;;;;;;1.08;0.80;;;16.70;1.00;;;;;;5029727;28;20037;-77
2023/10/12 00:49:20;;;;;;;1.15;0.63;;;16.70;1.00;;;;;;5027403;28;20423;-78
2023/10/12 00:51:53;;;;;;;4.20;1.83;;;16.70;1.00;;;;;;5025110;28;20040;-78
2023/10/12 00:57:03;;;;;;;1.67;1.38;;;16.60;1.00;;;;;;5027320;28;20029;-76
2023/10/12 00:59:34;;;;;;;0.22;0.22;;;16.60;1.00;;;;;;5028715;28;20045;-77
2023/10/12 01:02:02;;;;;;;2.38;0.60;;;16.50;1.00;;;;;;5027615;28;20046;-76
2023/10/12 01:04:30;;;;;;;1.00;0.82;;;16.50;1.00;;;;;;5028818;28;20037;-77
2023/10/12 01:06:59;;;;;;;12.52;1.50;;;16.50;1.00;;;;;;5027735;28;20021;-77
2023/10/12 01:09:29;;;;;;;0.93;0.63;;;16.40;1.00;;;;;;5035320;28;20044;-76
2023/10/12 01:11:59;;;;;;;0.53;0.50;;;16.40;1.00;;;;;;5026484;28;20037;-76
2023/10/12 01:14:30;;;;;;;5.63;0.70;;;16.40;1.00;;;;;;5034799;28;20390;-77
2023/10/12 01:17:04;;;;;;;1.05;0.82;;;16.40;1.00;;;;;;5026132;28;20386;-76
2023/10/12 01:19:44;;;;;;;0.30;0.30;;;16.30;1.00;;;;;;5030101;28;20413;-77
2023/10/12 01:22:14;;;;;;;;;;;16.20;1.00;;;;;;5032801;28;20042;-77
2023/10/12 01:27:26;;;;;;;0.30;0.28;;;16.20;1.00;;;;;;5027254;28;20037;-78
2023/10/12 01:29:59;;;;;;;1.33;1.13;;;16.10;1.00;;;;;;5025710;28;20072;-77
2023/10/12 01:32:27;;;;;;;1.83;0.57;;;16.10;1.00;;;;;;5029529;28;20045;-77
2023/10/12 01:34:57;;;;;;;0.43;0.43;;;16.10;1.00;;;;;;5027271;28;20033;-77
2023/10/12 01:37:26;;;;;;;0.47;0.43;;;16.10;1.00;;;;;;5027124;28;20037;-77
2023/10/12 01:40:09;;;;;;;1.45;1.35;;;16.00;1.00;;;;;;5027031;28;20052;-77
2023/10/12 01:42:49;;;;;;;0.40;0.30;;;16.00;1.00;;;;;;5028495;28;20056;-76
2023/10/12 01:45:35;;;;;;;0.85;0.85;;;16.00;1.00;;;;;;5025583;28;20060;-76
2023/10/12 01:48:08;;;;;;;0.55;0.55;;;15.90;1.00;;;;;;5007724;28;20090;-76
2023/10/12 01:50:37;;;;;;;1.40;1.20;;;15.80;1.00;;;;;;5029116;28;20041;-76
2023/10/12 01:53:33;;;;;;;0.47;0.47;;;15.80;1.00;;;;;;5027696;28;20030;-76
2023/10/12 01:56:00;;;;;;;4.25;0.65;;;15.90;1.00;;;;;;5027273;28;20044;-76
2023/10/12 01:58:27;;;;;;;0.90;0.38;;;15.80;1.00;;;;;;5027677;28;20075;-76
2023/10/12 02:01:05;;;;;;;1.38;1.27;;;15.70;1.00;;;;;;5030611;28;20056;-76
2023/10/12 02:03:33;;;;;;;0.38;0.38;;;15.60;1.00;;;;;;5026560;28;20049;-77
2023/10/12 02:06:00;;;;;;;0.73;0.70;;;15.60;1.90;;;;;;5026457;28;20041;-77
2023/10/12 02:11:12;;;;;;;1.48;1.17;;;15.50;15.90;;;;;;5033107;28;20140;-76
2023/10/12 02:13:41;;;;;;;5.88;0.65;;;15.40;23.60;;;;;;5034916;28;20447;-76
2023/10/12 02:16:10;;;;;;;0.52;0.52;;;15.30;29.70;;;;;;5032591;28;20029;-76
2023/10/12 02:18:36;;;;;;;0.60;0.30;;;15.30;45.60;;;;;;5034852;28;20052;-76
2023/10/12 02:23:36;;;;;;;2.35;1.55;;;15.30;54.90;;;;;;5034730;28;20029;-76
2023/10/12 02:26:10;;;;;;;1.17;0.75;;;15.50;44.10;;;;;;5046526;28;20045;-76
2023/10/12 02:28:40;;;;;;;0.35;0.32;;;15.60;22.20;;;;;;5035913;28;20113;-76
2023/10/12 02:31:06;;;;;;;0.82;0.63;;;15.80;3.10;;;;;;5029235;28;20486;-77
2023/10/12 02:33:36;;;;;;;1.17;0.75;;;15.90;1.00;;;;;;5036767;28;20104;-77
2023/10/12 02:36:09;;;;;;;2.65;1.05;;;15.90;1.00;;;;;;5032279;28;20041;-77
2023/10/12 02:38:35;;;;;;;0.73;0.73;;;15.80;1.00;;;;;;5033100;28;20030;-77
2023/10/12 02:41:02;;;;;;;0.20;0.20;;;15.80;1.00;;;;;;5031647;28;20037;-77
2023/10/12 02:43:28;;;;;;;0.70;0.70;;;15.80;1.00;;;;;;5033501;28;20380;-77
2023/10/12 02:46:01;;;;;;;0.63;0.55;;;15.70;1.00;;;;;;5033965;28;20025;-76
2023/10/12 02:48:29;;;;;;;5.93;1.20;;;15.70;9.20;;;;;;5034771;28;20375;-78
2023/10/12 02:50:58;;;;;;;0.65;0.65;;;15.70;8.50;;;;;;5026412;28;20049;-77
2023/10/12 02:53:29;;;;;;;4.20;1.15;;;15.70;12.50;;;;;;5035982;28;20029;-76
2023/10/12 02:56:00;;;;;;;0.40;0.40;;;15.70;12.30;;;;;;5034526;28;20037;-79
2023/10/12 02:58:30;;;;;;;;;;;15.70;14.20;;;;;;5034601;28;20400;-79
2023/10/12 03:01:12;;;;;;;0.38;0.38;;;15.60;13.90;;;;;;5033631;28;19921;-77
2023/10/12 03:03:47;;;;;;;0.80;0.32;;;15.60;14.70;;;;;;5045159;28;20037;-78
2023/10/12 03:06:21;;;;;;;0.90;0.60;;;15.60;21.70;;;;;;5032146;28;20049;-77
2023/10/12 03:09:36;;;;;;;1.42;0.95;;;15.60;21.00;;;;;;5033283;28;20033;-78
2023/10/12 03:11:35;;;;;;;5.78;1.85;;;15.50;26.30;;;;;;5039161;28;20504;-77
2023/10/12 03:14:26;;;;;;;1.30;0.60;;;15.50;44.90;;;;;;5031441;28;20045;-79
2023/10/12 03:16:53;;;;;;;1.25;0.88;;;15.30;52.80;;;;;;5034463;28;20037;-77
2023/10/12 03:19:25;;;;;;;1.00;0.93;;;15.20;85.20;;;;;;5029854;28;20352;-77
2023/10/12 03:21:52;;;;;;;1.90;0.82;;;15.10;95.10;;;;;;5029262;28;20044;-78
2023/10/12 03:24:29;;;;;;;0.63;0.60;;;15.00;98.40;;;;;;5045161;28;20358;-77
2023/10/12 03:29:28;;;;;;;0.90;0.30;;;15.20;91.40;;;;;;5030133;28;20033;-78
2023/10/12 03:31:57;;;;;;;0.60;0.60;;;15.20;85.20;;;;;;5029867;28;20046;-77
2023/10/12 03:34:38;;;;;;;0.70;0.70;;;15.20;80.00;;;;;;5027780;28;20042;-77
2023/10/12 03:37:14;;;;;;;1.15;0.30;;;15.30;75.30;;;;;;5028376;28;20383;-78
2023/10/12 03:39:59;;;;;;;0.88;0.82;;;15.30;73.60;;;;;;5031067;28;20041;-77
2023/10/12 03:44:55;;;;;;;1.33;1.00;;;15.20;79.00;;;;;;5027957;28;20030;-77
2023/10/12 03:52:28;;;;;;;11.88;2.05;;;15.10;91.50;;;;;;5046013;28;20418;-77
2023/10/12 03:55:09;;;;;;;9.63;1.77;;;15.20;74.70;;;;;;5022575;28;20136;-77
2023/10/12 03:57:45;;;;;;;0.40;0.40;;;15.40;60.00;;;;;;5031399;28;20033;-77
2023/10/12 04:02:56;;;;;;;0.75;0.73;;;15.30;63.40;;;;;;5030433;28;20399;-78
2023/10/12 04:08:18;;;;;;;0.25;0.25;;;15.20;93.30;;;;;;5030027;28;20046;-79
2023/10/12 04:18:32;;;;;;;3.80;1.50;;;14.90;99.90;;;;;;5044565;28;20487;-79
2023/10/12 04:20:59;;;;;;;1.38;0.93;;;14.80;99.90;;;;;;5028237;28;20064;-79
2023/10/12 04:28:50;;;;;;;0.90;0.63;;;14.80;99.90;;;;;;5029835;28;20029;-78
2023/10/12 04:34:06;;;;;;;5.00;2.67;;;14.70;99.90;;;;;;5029094;28;20029;-77
2023/10/12 04:36:44;;;;;;;3.13;1.48;;;15.10;99.90;;;;;;5030920;28;20029;-78
2023/10/12 04:39:25;;;;;;;2.75;0.65;;;15.30;88.40;;;;;;5029140;28;20390;-78
2023/10/12 04:47:04;;;;;;;0.80;0.65;;;15.30;82.10;;;;;;5027562;28;20048;-78
2023/10/12 04:57:26;;;;;;;1.30;0.93;;;15.20;99.00;;;;;;5027759;28;20336;-77
2023/10/12 05:07:53;;;;;;;0.35;0.35;;;15.00;99.90;;;;;;5029637;28;20471;-75
2023/10/12 05:10:26;;;;;;;0.95;0.57;;;15.00;99.90;;;;;;5027290;28;20045;-75
2023/10/12 05:12:57;;;;;;;0.55;0.52;;;14.90;99.90;;;;;;5025565;28;20041;-75
2023/10/12 05:15:27;;;;;;;0.93;0.93;;;14.90;99.90;;;;;;5041712;28;20379;-76
2023/10/12 05:17:53;;;;;;;0.23;0.23;;;14.90;99.90;;;;;;5041649;28;20331;-77
2023/10/12 05:20:24;;;;;;;0.35;0.30;;;14.90;99.90;;;;;;5025176;28;20502;-75
2023/10/12 05:22:50;;;;;;;1.35;0.55;;;14.90;99.90;;;;;;5027386;28;20097;-75
2023/10/12 05:25:16;;;;;;;0.88;0.30;;;14.90;99.90;;;;;;5025611;28;20029;-76
2023/10/12 05:28:03;;;;;;;1.35;0.95;;;14.80;99.90;;;;;;5030193;28;20029;-76
2023/10/12 05:30:29;;;;;;;1.55;0.93;;;14.80;99.90;;;;;;5042884;28;20048;-76
2023/10/12 05:33:04;;;;;;;0.25;0.25;;;14.80;99.90;;;;;;5027547;28;20474;-76
2023/10/12 05:35:52;;;;;;;2.28;0.98;;;14.80;99.90;;;;;;5021433;28;20033;-77
2023/10/12 05:38:18;;;;;;;0.43;0.43;;;14.90;99.90;;;;;;5023057;28;20041;-77
2023/10/12 05:40:53;;;;;;;2.05;0.80;;;14.80;99.90;;;;;;5026804;28;20057;-77
2023/10/12 05:43:22;;;;;;;1.13;0.55;;;14.80;99.90;;;;;;5026396;28;20527;-77
2023/10/12 05:45:48;;;;;;;0.40;0.40;;;14.80;99.90;;;;;;5027935;28;20037;-78
2023/10/12 05:48:19;;;;;;;0.60;0.50;;;14.80;99.90;;;;;;5026736;28;20048;-78
2023/10/12 05:50:49;;;;;;;1.15;0.85;;;14.80;99.90;;;;;;5028863;28;20471;-77
2023/10/12 05:53:16;;;;;;;1.35;1.00;;;14.90;99.90;;;;;;5023976;28;20041;-76
2023/10/12 05:55:44;;;;;;;0.90;0.75;;;14.90;99.90;;;;;;5026664;28;20045;-76
2023/10/12 05:58:15;;;;;;;1.88;0.80;;;14.90;99.90;;;;;;5027212;28;20063;-76
2023/10/12 06:00:45;;;;;;;0.50;0.47;;;14.90;99.90;;;;;;5026617;28;20049;-77
2023/10/12 06:03:19;;;;;;;0.40;0.40;;;14.90;99.90;;;;;;5026857;28;20045;-77
2023/10/12 06:05:45;;;;;;;3.03;1.13;;;14.90;99.90;;;;;;5021046;28;20136;-76
2023/10/12 06:08:12;;;;;;;2.22;1.20;;;14.90;99.90;;;;;;5026261;28;20033;-76
2023/10/12 06:10:42;;;;;;;1.02;0.95;;;14.90;99.90;;;;;;5031825;28;20045;-76
2023/10/12 06:13:09;;;;;;;0.50;0.50;;;14.90;99.90;;;;;;5027387;28;20041;-80
2023/10/12 06:15:42;;;;;;;3.03;1.77;;;15.00;99.90;;;;;;5024604;28;20130;-77
2023/10/12 06:18:12;;;;;;;2.83;1.85;;;15.10;99.90;;;;;;5025754;28;20037;-81
2023/10/12 06:20:42;;;;;;;3.30;0.68;;;15.30;99.90;;;;;;5029711;28;20123;-76
2023/10/12 06:23:09;;;;;;;1.13;0.50;;;15.40;99.90;;;;;;5026391;28;20497;-81
2023/10/12 06:25:39;;;;;;;0.55;0.55;;;15.50;99.90;;;;;;5026070;28;20042;-76
2023/10/12 06:28:17;;;;;;;0.73;0.55;;;15.50;99.90;;;;;;5028333;28;20033;-77
2023/10/12 06:30:47;;;;;;;0.65;0.65;;;15.60;94.30;;;;;;5029366;28;20040;-76
2023/10/12 06:33:17;;;;;;;0.57;0.38;;;15.70;79.50;;;;;;5020721;28;20069;-76
2023/10/12 06:36:00;;;;;;;1.90;1.15;;;15.80;87.20;;;;;;5034817;28;20036;-77
2023/10/12 06:38:47;;;;;;;1.85;0.75;;;15.70;90.70;;;;;;5026542;28;20032;-78
2023/10/12 06:44:12;;;;;;;2.20;0.90;;;15.70;90.70;;;;;;5026983;28;20687;-82
2023/10/12 06:46:45;;;;;;;1.23;0.47;;;15.80;77.30;;;;;;5025573;28;20106;-75
2023/10/12 06:49:21;;;;;;;1.33;0.52;;;15.80;71.50;;;;;;5028478;28;20041;-79
2023/10/12 06:52:10;;;;;;;2.70;0.70;;;15.90;91.30;;;;;;5026822;28;20045;-76
2023/10/12 06:59:53;;;;;;;3.05;1.85;;;15.90;97.30;;;;;;5031410;28;20132;-76
2023/10/12 07:02:27;;;;;;;1.92;1.75;;;15.90;99.90;;;;;;5044913;28;20076;-76
2023/10/12 07:04:54;;;;;;;0.68;0.68;;;16.00;93.90;;;;;;5029954;28;20064;-76
2023/10/12 07:07:36;;;;;;;1.35;0.80;;;16.00;97.70;;;;;;5030781;28;20048;-76
2023/10/12 07:10:20;;;;;;;0.20;0.20;;;16.00;99.10;;;;;;5025802;28;20085;-76
2023/10/12 07:12:48;;;;;;;3.88;1.73;;;16.10;94.80;;;;;;5030882;28;20049;-77
2023/10/12 07:15:22;;;;;;;0.98;0.82;;;16.20;89.60;;;;;;5029399;28;20045;-76
2023/10/12 07:17:49;;;;;;;0.50;0.50;;;16.30;79.30;;;;;;5031720;28;20406;-76
2023/10/12 07:23:14;;;;;;;1.17;0.98;;;16.40;46.30;;;;;;5032023;28;20033;-76
2023/10/12 07:25:57;;;;;;;1.08;0.65;;;16.60;30.50;;;;;;5030716;28;20386;-76
2023/10/12 07:28:32;;;;;;;0.32;0.17;;;16.80;18.20;;;;;;5027916;28;20033;-76
2023/10/12 07:31:15;;;;;;;2.33;1.33;;;16.90;4.10;;;;;;5031904;28;20041;-76
2023/10/12 07:33:59;;;;;;;0.47;0.47;;;17.00;1.00;;;;;;5029302;28;20038;-76
2023/10/12 07:39:38;;;;;;;5.03;1.40;;;17.20;1.00;;;;;;5032187;28;20398;-75
2023/10/12 07:41:56;;;;;;;2.42;1.85;;;17.20;1.00;;;;;;5031791;28;20049;-75
2023/10/12 07:44:37;;;;;;;0.85;0.32;;;17.30;1.00;;;;;;5030346;28;20042;-76
2023/10/12 07:47:13;;;;;;;0.73;0.65;;;17.40;1.00;;;;;;5029788;28;20046;-75
2023/10/12 07:49:49;;;;;;;6.43;1.25;;;17.50;1.00;;;;;;5032525;28;20052;-75
2023/10/12 07:57:22;;;;;;;0.43;0.22;;;17.80;1.00;;;;;;5022050;28;20037;-76
2023/10/12 08:03:05;;;;;;;0.77;0.65;;;17.90;1.00;;;;;;5030535;28;20060;-76
2023/10/12 08:10:48;;;;;;;1.17;0.98;;;18.10;1.00;;;;;;5027999;28;20041;-77
2023/10/12 08:13:26;;;;;;;6.65;0.52;;;18.10;1.00;;;;;;5031370;28;20060;-76
2023/10/12 08:21:18;;;;;;;1.05;0.82;;;18.30;1.00;;;;;;5030331;28;20044;-75
2023/10/12 08:23:49;;;;;;;2.13;0.85;;;18.30;1.00;;;;;;5030192;28;20030;-76
2023/10/12 08:27:05;;;;;;;1.52;1.13;;;18.50;1.00;;;;;;5027350;28;20473;-85
2023/10/12 08:39:38;;;;;;;1.65;0.82;;;18.70;1.00;;;;;;5035051;28;20049;-74
2023/10/12 08:44:51;;;;;;;3.15;0.82;;;19.10;1.00;;;;;;5029508;28;20030;-75
2023/10/12 08:52:34;;;;;;;0.87;0.37;;;19.20;99.90;;;;;;5027446;28;20041;-74
2023/10/12 08:55:13;;;;;;;0.82;0.77;;;19.40;99.90;;;;;;5030055;28;20283;-76
2023/10/12 08:57:43;;;;;;;1.50;1.17;;;19.50;99.90;;;;;;5012505;28;20049;-75
2023/10/12 09:00:23;;;;;;;5.18;0.77;;;19.60;99.90;;;;;;5028080;28;20045;-75
2023/10/12 09:02:53;;;;;;;0.75;0.75;;;19.80;99.90;;;;;;5028563;28;20705;-74
2023/10/12 09:05:25;;;;;;;4.03;2.00;;;20.00;99.90;;;;;;5027552;28;20105;-76
2023/10/12 09:10:51;;;;;;;0.70;0.45;;;20.30;99.90;;;;;;5027615;28;20458;-74
2023/10/12 09:13:19;;;;;;;0.32;0.32;;;20.30;99.90;;;;;;5028711;28;20038;-75
2023/10/12 09:15:46;;;;;;;1.92;1.27;;;20.20;99.90;;;;;;5028514;28;20033;-75
2023/10/12 09:18:19;;;;;;;2.15;0.68;;;20.20;99.90;;;;;;5025429;28;20029;-75
2023/10/12 09:21:03;;;;;;;7.63;0.63;;;20.10;99.90;;;;;;5028243;28;20029;-76
2023/10/12 09:31:48;;;;;;;9.73;2.05;;;19.80;99.90;;;;;;5028837;28;20052;-75
2023/10/12 09:36:53;;;;;;;0.43;0.43;;;19.70;99.90;;;;;;5026555;28;20463;-75
2023/10/12 09:39:27;;;;;;;3.42;1.02;;;19.60;99.90;;;;;;5026474;28;20042;-76
2023/10/12 09:41:59;;;;;;;2.78;1.85;;;19.60;99.90;;;;;;5029935;28;20033;-75
2023/10/12 09:44:27;;;;;;;1.00;1.00;;;19.60;99.90;;;;;;5028685;28;20025;-75
2023/10/12 09:46:57;;;;;;;1.23;1.13;;;19.60;99.90;;;;;;5026255;28;20034;-75
2023/10/12 09:49:29;;;;;;;2.78;0.85;;;19.60;99.90;;;;;;5028448;28;20036;-76
2023/10/12 09:52:04;;;;;;;5.03;0.70;;;19.60;99.90;;;;;;5028213;28;20045;-75
2023/10/12 09:54:45;;;;;;;0.45;0.45;;;19.50;99.90;;;;;;5028984;28;20223;-75
2023/10/12 09:57:27;;;;;;;0.22;0.22;;;19.60;99.90;;;;;;5027188;28;20044;-76
2023/10/12 10:00:18;;;;;;;0.47;0.43;;;19.60;99.90;;;;;;5029017;28;20049;-76
2023/10/12 10:02:47;;;;;;;2.63;1.45;;;19.50;99.90;;;;;;5026931;28;20045;-76
2023/10/12 10:08:04;;;;;;;1.38;0.70;;;19.50;99.90;;;;;;5013451;28;20045;-77
2023/10/12 10:10:32;;;;;;;0.57;0.40;;;19.50;99.90;;;;;;5028759;28;20467;-76
2023/10/12 10:13:02;;;;;;;1.08;0.68;;;19.50;99.90;;;;;;5027675;28;20052;-76
2023/10/12 10:15:44;;;;;;;2.55;0.63;;;19.50;99.90;;;;;;5024656;28;20383;-76
2023/10/12 10:18:16;;;;;;;1.05;0.88;;;19.50;99.90;;;;;;5026305;28;20033;-76
2023/10/12 10:20:56;;;;;;;0.88;0.40;;;19.50;99.90;;;;;;5027799;28;20033;-77
2023/10/12 10:23:23;;;;;;;0.50;0.50;;;19.60;99.90;;;;;;5030221;28;20064;-76
2023/10/12 10:25:56;;;;;;;0.75;0.73;;;19.60;99.90;;;;;;5025826;28;20033;-76
2023/10/12 10:28:27;;;;;;;1.02;0.95;;;19.60;99.90;;;;;;5026525;28;20033;-79
2023/10/12 10:30:56;;;;;;;;;;;19.60;99.90;;;;;;5033401;28;20029;-76
2023/10/12 10:33:23;;;;;;;1.23;1.10;;;19.60;99.90;;;;;;5031884;28;19924;-76
2023/10/12 10:41:46;;;;;;;0.50;0.50;;;19.40;1.00;;;;;;5031200;28;20033;-76
2023/10/12 10:44:21;;;;;;;1.45;1.02;;;19.40;99.90;;;;;;5033412;28;20036;-77
2023/10/12 10:46:57;;;;;;;0.88;0.70;;;19.40;1.00;;;;;;5030002;28;20043;-76
2023/10/12 10:49:30;;;;;;;0.82;0.32;;;19.40;1.00;;;;;;5024576;28;20393;-77
2023/10/12 10:54:38;;;;;;;1.42;0.98;;;19.50;1.00;;;;;;5023383;28;20046;-76
2023/10/12 10:57:15;;;;;;;0.60;0.60;;;19.50;1.00;;;;;;5032797;28;20410;-77
2023/10/12 10:59:43;;;;;;;3.63;1.50;;;19.50;1.00;;;;;;5030351;28;20367;-76
2023/10/12 11:02:13;;;;;;;0.30;0.30;;;19.60;1.00;;;;;;5032181;28;20060;-77
2023/10/12 11:04:43;;;;;;;27.02;2.53;;;19.60;1.00;;;;;;5030141;28;20053;-77
2023/10/12 11:07:15;;;;;;;0.47;0.47;;;19.60;1.00;;;;;;5030456;28;20033;-77
2023/10/12 11:12:30;;;;;;;1.30;1.25;;;19.60;1.00;;;;;;5030903;28;20048;-78
2023/10/12 11:15:07;;;;;;;1.67;1.05;;;19.60;1.00;;;;;;5032197;28;20085;-76
2023/10/12 11:17:56;;;;;;;1.98;1.30;;;19.60;1.00;;;;;;5030446;28;20398;-77
2023/10/12 11:20:35;;;;;;;1.98;0.85;;;19.50;1.00;;;;;;5028971;28;20041;-77
2023/10/12 11:23:07;;;;;;;0.90;0.90;;;19.50;1.00;;;;;;5029769;28;20037;-77
2023/10/12 11:25:40;;;;;;;0.52;0.52;;;19.50;1.00;;;;;;5027942;28;20641;-76
2023/10/12 11:28:22;;;;;;;27.08;2.05;;;19.50;1.00;;;;;;5030116;28;20037;-76
2023/10/12 11:30:52;;;;;;;1.35;1.13;;;19.40;1.00;;;;;;5047070;28;20041;-78
2023/10/12 11:33:27;;;;;;;1.10;0.82;;;19.30;1.00;;;;;;5030513;28;20045;-77
2023/10/12 11:35:54;;;;;;;0.85;0.57;;;19.10;1.00;;;;;;5029224;28;20033;-78
2023/10/12 11:38:23;;;;;;;2.58;1.10;;;19.00;16.10;;;;;;5030203;28;20045;-79
2023/10/12 11:40:55;;;;;;;1.50;1.40;;;18.90;22.10;;;;;;5028751;28;20045;-78
2023/10/12 11:43:21;;;;;;;0.40;0.40;;;18.70;28.90;;;;;;5031736;28;20037;-80
2023/10/12 11:46:01;;;;;;;0.73;0.73;;;18.60;62.70;;;;;;5029664;28;20026;-77
2023/10/12 11:48:29;;;;;;;1.98;0.95;;;18.60;99.90;;;;;;5032179;28;20033;-77
2023/10/12 11:51:10;;;;;;;2.92;1.63;;;18.50;99.90;;;;;;5032698;28;20033;-77
2023/10/12 11:53:41;;;;;;;1.33;0.88;;;18.50;99.90;;;;;;5028243;28;20060;-77
2023/10/12 11:56:14;;;;;;;1.50;0.95;;;18.50;99.90;;;;;;5030354;28;20458;-77
2023/10/12 11:58:41;;;;;;;9.57;2.00;;;18.50;99.90;;;;;;5030301;28;20554;-77
2023/10/12 12:01:09;;;;;;;1.00;0.75;;;18.40;99.90;;;;;;5029340;28;20049;-78
2023/10/12 12:03:45;;;;;;;1.27;0.93;;;18.40;99.90;;;;;;5028762;28;20048;-78
2023/10/12 12:06:21;;;;;;;1.33;1.05;;;18.40;99.90;;;;;;5019726;28;20036;-80
2023/10/12 12:08:49;;;;;;;0.77;0.73;;;18.30;99.90;;;;;;5031763;28;20041;-79
2023/10/12 12:11:19;;;;;;;2.15;1.00;;;18.30;99.90;;;;;;5026851;28;20038;-78
2023/10/12 12:13:51;;;;;;;0.57;0.57;;;18.20;99.90;;;;;;5030144;28;20046;-79
2023/10/12 12:16:20;;;;;;;2.00;0.90;;;18.20;99.90;;;;;;5028086;28;20033;-78
2023/10/12 12:18:51;;;;;;;0.63;0.63;;;18.20;99.90;;;;;;5029677;28;20033;-78
2023/10/12 12:21:29;;;;;;;0.65;0.57;;;18.10;99.90;;;;;;5034025;28;20931;-76
2023/10/12 12:24:21;;;;;;;2.47;0.88;;;18.20;99.90;;;;;;5029683;28;20045;-76
2023/10/12 12:26:49;;;;;;;8.88;3.03;;;18.10;99.90;;;;;;5029437;28;20041;-76
2023/10/12 12:29:16;;;;;;;1.77;1.23;;;18.00;99.90;;;;;;5026349;28;20066;-76
2023/10/12 12:31:48;;;;;;;1.25;0.68;;;18.00;99.90;;;;;;5028929;28;20366;-76
2023/10/12 12:34:34;;;;;;;1.70;1.30;;;18.00;99.90;;;;;;5027384;28;20056;-77
2023/10/12 12:37:04;;;;;;;1.38;1.27;;;17.90;99.90;;;;;;5029712;28;20037;-77
2023/10/12 12:39:35;;;;;;;1.30;1.02;;;17.70;1.00;;;;;;5028507;28;20048;-77
2023/10/12 12:42:02;;;;;;;2.58;1.63;;;17.60;1.00;;;;;;5026101;28;20383;-78
2023/10/12 12:44:28;;;;;;;0.20;0.20;;;17.60;1.00;;;;;;5027589;28;20034;-79
2023/10/12 12:46:56;;;;;;;1.23;0.95;;;17.60;1.00;;;;;;5026637;28;20060;-78
2023/10/12 12:49:24;;;;;;;1.42;0.98;;;17.60;1.00;;;;;;5028034;28;20022;-77
2023/10/12 12:51:50;;;;;;;2.80;2.05;;;17.60;1.00;;;;;;5027685;28;20026;-79
2023/10/12 12:54:17;;;;;;;3.70;2.17;;;17.60;1.00;;;;;;5027671;28;20044;-81
2023/10/12 12:56:43;;;;;;;2.53;1.42;;;17.60;1.00;;;;;;5027604;28;20363;-78
2023/10/12 12:59:10;;;;;;;1.30;1.23;;;17.60;1.00;;;;;;5029127;28;20029;-78
2023/10/12 13:01:39;;;;;;;2.55;1.67;;;17.60;1.00;;;;;;5027995;28;20108;-79
2023/10/12 13:04:05;;;;;;;1.58;1.45;;;17.60;1.00;;;;;;5028804;28;20029;-79
2023/10/12 13:06:34;;;;;;;2.65;1.30;;;17.60;1.00;;;;;;5026506;28;20033;-78
2023/10/12 13:09:03;;;;;;;1.58;1.15;;;17.60;1.00;;;;;;5028501;28;20037;-78
2023/10/12 13:11:29;;;;;;;0.22;0.22;;;17.60;1.00;;;;;;5029288;28;20021;-78
2023/10/12 13:13:55;;;;;;;1.63;1.10;;;17.60;1.00;;;;;;5028860;28;20415;-79
2023/10/12 13:16:21;;;;;;;3.03;1.23;;;17.60;1.00;;;;;;5027512;28;20037;-78
2023/10/12 13:18:47;;;;;;;2.30;1.13;;;17.60;1.00;;;;;;5026598;28;20434;-77
2023/10/12 13:21:15;;;;;;;5.35;0.80;;;17.60;1.00;;;;;;5028457;28;20402;-78
2023/10/12 13:23:45;;;;;;;1.45;1.13;;;17.60;1.00;;;;;;5025047;28;20038;-78
2023/10/12 13:26:14;;;;;;;2.70;1.70;;;17.60;1.00;;;;;;5026907;28;20390;-82
2023/10/12 13:28:41;;;;;;;6.57;1.50;;;17.60;1.00;;;;;;5015246;28;20856;-80
2023/10/12 13:31:10;;;;;;;5.47;1.20;;;17.60;1.00;;;;;;5024119;28;20382;-79
2023/10/12 13:33:38;;;;;;;1.60;0.88;;;17.70;99.90;;;;;;5019971;28;20038;-78
2023/10/12 13:36:04;;;;;;;0.90;0.88;;;17.80;99.90;;;;;;5023119;28;20474;-78
2023/10/12 13:38:34;;;;;;;0.65;0.52;;;17.80;99.90;;;;;;5028409;28;20402;-77
2023/10/12 13:41:01;;;;;;;0.52;0.52;;;17.80;99.90;;;;;;5029206;28;20060;-78
2023/10/12 13:43:30;;;;;;;1.75;1.13;;;17.80;99.90;;;;;;5025407;28;20041;-80
2023/10/12 13:45:58;;;;;;;0.88;0.70;;;17.90;99.90;;;;;;5027296;28;20409;-78
2023/10/12 13:48:27;;;;;;;0.75;0.60;;;17.90;99.90;;;;;;5026657;28;20041;-78
2023/10/12 13:51:04;;;;;;;1.08;1.00;;;17.90;99.90;;;;;;5027783;28;20049;-79
2023/10/12 13:53:36;;;;;;;1.23;0.95;;;18.00;99.90;;;;;;5028410;28;20049;-79
2023/10/12 13:56:11;;;;;;;0.70;0.70;;;18.00;99.90;;;;;;5025363;28;20474;-79
2023/10/12 13:58:44;;;;;;;1.17;1.10;;;18.00;99.90;;;;;;5029600;28;20029;-79
2023/10/12 14:01:20;;;;;;;0.85;0.85;;;18.10;99.90;;;;;;5027365;28;20053;-79
2023/10/12 14:03:53;;;;;;;12.90;1.38;;;18.20;99.90;;;;;;5025714;28;20048;-79
2023/10/12 14:06:20;;;;;;;1.23;0.73;;;18.20;99.90;;;;;;5029333;28;20041;-79
2023/10/12 14:08:46;;;;;;;0.40;0.40;;;18.20;99.90;;;;;;5029595;28;20034;-79
2023/10/12 14:11:14;;;;;;;0.47;0.45;;;18.20;99.90;;;;;;5029106;28;20040;-79
2023/10/12 14:13:40;;;;;;;1.50;0.98;;;18.30;99.90;;;;;;5028114;28;20033;-79
2023/10/12 14:16:08;;;;;;;4.07;1.23;;;18.40;99.90;;;;;;5019263;28;20056;-80
2023/10/12 14:18:34;;;;;;;1.92;0.90;;;18.40;99.90;;;;;;5029849;28;20128;-80
2023/10/12 14:21:00;;;;;;;0.95;0.47;;;18.50;99.90;;;;;;5027261;28;20036;-80
2023/10/12 14:23:26;;;;;;;1.10;0.98;;;18.50;99.90;;;;;;5028974;28;20044;-80
2023/10/12 14:25:57;;;;;;;3.05;1.42;;;18.50;99.90;;;;;;5023886;28;20037;-80
2023/10/12 14:28:24;;;;;;;0.75;0.70;;;18.50;99.90;;;;;;5028272;28;20479;-80
2023/10/12 14:30:50;;;;;;;1.95;1.63;;;18.50;99.90;;;;;;5026093;28;20053;-80
2023/10/12 14:33:20;;;;;;;1.50;0.85;;;18.40;99.90;;;;;;5027772;28;20044;-80
2023/10/12 14:35:51;;;;;;;2.35;1.08;;;18.30;99.90;;;;;;5025150;28;20390;-80
2023/10/12 14:38:19;;;;;;;0.95;0.57;;;18.20;99.90;;;;;;5026773;28;20468;-78
2023/10/12 14:40:45;;;;;;;0.90;0.70;;;18.10;99.90;;;;;;5028979;28;20045;-79
2023/10/12 14:43:14;;;;;;;2.33;1.70;;;18.00;99.90;;;;;;5026623;28;20037;-79
2023/10/12 14:45:48;;;;;;;3.35;1.90;;;18.00;99.90;;;;;;5025126;28;20033;-77
2023/10/12 14:48:16;;;;;;;12.82;2.25;;;17.90;99.90;;;;;;5025524;28;20041;-78
2023/10/12 14:50:49;;;;;;;1.63;1.05;;;17.90;99.90;;;;;;5029160;28;20029;-78
2023/10/12 14:53:16;;;;;;;2.05;1.70;;;17.80;1.00;;;;;;5021742;28;20083;-78
2023/10/12 14:55:43;;;;;;;0.73;0.63;;;17.80;1.00;;;;;;5026949;28;20482;-79
2023/10/12 14:58:13;;;;;;;1.02;1.02;;;17.80;1.00;;;;;;5028234;28;20034;-79
2023/10/12 15:00:43;;;;;;;0.80;0.52;;;17.80;1.00;;;;;;5029413;28;20407;-79
2023/10/12 15:03:10;;;;;;;2.30;0.77;;;17.70;1.00;;;;;;5027247;28;20041;-79
2023/10/12 15:05:37;;;;;;;1.85;1.75;;;17.80;1.00;;;;;;5022293;28;20060;-79
2023/10/12 15:08:07;;;;;;;1.02;0.88;;;17.90;1.00;;;;;;5020970;28;20037;-78
2023/10/12 15:10:43;;;;;;;0.77;0.77;;;17.90;1.00;;;;;;5025889;28;20029;-82
2023/10/12 15:13:12;;;;;;;6.13;1.05;;;17.90;1.00;;;;;;5024770;28;20054;-79
2023/10/12 15:15:38;;;;;;;1.17;0.95;;;17.80;1.00;;;;;;5030856;28;20036;-78
2023/10/12 15:18:04;;;;;;;0.55;0.50;;;17.80;1.00;;;;;;5029246;28;20033;-79
2023/10/12 15:20:34;;;;;;;1.25;1.15;;;17.80;1.00;;;;;;5031608;28;20030;-80
2023/10/12 15:23:00;;;;;;;1.00;1.00;;;17.70;1.00;;;;;;5031296;28;20030;-79
2023/10/12 15:25:27;;;;;;;1.70;1.60;;;17.70;1.00;;;;;;5030709;28;20084;-79
2023/10/12 15:27:56;;;;;;;1.15;0.95;;;17.70;26.90;;;;;;5030849;28;20045;-79
2023/10/12 15:30:22;;;;;;;9.90;1.70;;;17.70;77.10;;;;;;5031403;28;20030;-79
2023/10/12 15:32:54;;;;;;;5.10;1.38;;;17.70;46.40;;;;;;5032098;28;20062;-78
2023/10/12 15:35:24;;;;;;;2.00;1.83;;;17.70;12.50;;;;;;5031346;28;20025;-79
2023/10/12 15:37:51;;;;;;;1.13;1.02;;;17.70;33.20;;;;;;5026907;28;20057;-79